メインページ
METAR-TAF:

METAR-TAF

空港 :

ワルシャワ, ポーランド

ワルシャワ・ショパン空港

緯度: 52-10N, 経度: 020-58E, 海抜: 106m

現時点の気象観測

当レポートは24分前の13:00(UTC)に作成
の風 10kt
気温 16°C
湿度 72%
気圧 1026 hPa
視程10km以上
高度1800ftの雲はほとんどない
高度3700ftの千切れ雲あり

METAR: EPWA 251300Z 09010KT 9999 FEW018 BKN037 16/11 Q1026 NOSIG

時間: 15:24 (13:24 UTC)

予報

当レポートは1時間54分前の11:30(UTC)に作成
予報は25日の 12時(UTC)から 26日の 12時(UTC)まで有効
東/南東の風 11kt
視程10km以上
高度2500ftの千切れ雲あり
確率 40% :
25日の 12時(UTC)から 25日の 17時(UTC)まで一時的に
高度2500ftの千切れ雲あり, 塔状積雲.

TAF: EPWA 251130Z 2512/2612 11011KT 9999 BKN025 PROB40 TEMPO 2512/2517 BKN025TCU

4,000以上の空港の気象観測と天気予報(METAR報とTAF報)

利用可能な観測所は地図上に黄色い丸と赤い丸で示す。

丸の上にカーソルを重ねると観測所名を参照できる。

次にクリックすると気象観測と天気予報を参照できる。

マップの切り替え:黒色「×」印の緑ボタンをクリックして拡大、「-」印の緑ボタンをクリックして縮小、緑色の三角印をクリックして隣りの地図に切り替え


METAR-TAF: